17:30
Airports
Links
Donate
Help keep this website running!
PayPal
Bitcoin
METAR
CYSB 211700Z 20007KT 20SM FEW020 SCT060 BKN140 24/18 A3011 RMK SC1SC3AC3 SLP199 DENSITY ALT 2300FT
Current Weather Conditions at CYSB
VFR 17:00:00 21-09-17
Altimeter:30.11 hg
Temp:24.0°c 75°f
Dew point:18.0°c 64°f
Wind:7 knots, 8.1 mph, 4 m/s, from 200°
Visibility:20.0 statute miles
14000(BKN) Broken
6000(SCT) Scattered
2000(FEW) A few
Past METAR reports
VFR 16:00:00 21-09-17
Altimeter:30.12 hg
Temp:24.0°c 75°f
Dew point:18.0°c 64°f
Wind:6 knots, 6.9 mph, 3 m/s, from 210°
Visibility:20.0 statute miles
25000(BKN) Broken
6000(SCT) Scattered
2000(FEW) A few
CYSB 211600Z 21006KT 20SM FEW020 SCT060 BKN250 24/18 A3012 RMK SC1SC3CI3 SLP200 DENSITY ALT 2200FT
VFR 15:00:00 21-09-17
Altimeter:30.11 hg
Temp:22.0°c 72°f
Dew point:18.0°c 64°f
Wind:4 knots, 4.6 mph, 2 m/s, from 230°
Visibility:15.0 statute miles
14000(BKN) Broken
1500(SCT) Scattered
500(FEW) A few
CYSB 211500Z 23004KT 170V260 15SM FEW005 SCT015 BKN140 22/18 A3011 RMK SF2SC2AC2 SLP199 DENSITY ALT 2100FT
VFR 14:00:00 21-09-17
Altimeter:30.11 hg
Temp:20.0°c 68°f
Dew point:18.0°c 64°f
Wind:6 knots, 6.9 mph, 3 m/s, from 230°
Visibility:12.0 statute miles
22000(OVC) Overcast
14000(BKN) Broken
500(SCT) Scattered
CYSB 211400Z 23006KT 12SM SCT005 BKN140 OVC220 20/18 A3011 RMK SF4AC2CI2 SLP198 DENSITY ALT 1800FT
VFR 13:00:00 21-09-17
Altimeter:30.06 hg
Temp:18.0°c 64°f
Dew point:17.0°c 63°f
Wind:14 knots, 16.1 mph, 7 m/s, from 200°
Visibility:12.0 statute miles
22000(OVC) Overcast
10000(SCT) Scattered
300(FEW) A few
CYSB 211300Z 20014KT 12SM FEW003 SCT100 OVC220 18/17 A3006 RMK SF2AC1CI5 SLP183 DENSITY ALT 1600FT
VFR 12:00:00 21-09-17
Altimeter:30.02 hg
Temp:16.0°c 61°f
Dew point:16.0°c 61°f
Wind:14 knots, 16.1 mph, 7 m/s, from 150°
Visibility:12.0 statute miles
22000(OVC) Overcast
8000(FEW) A few
100(FEW) A few
CYSB 211200Z 15014KT 12SM FEW001 FEW080 OVC220 16/16 A3002 RMK SF1AC1CI6 SLP169 DENSITY ALT 1500FT
TAF
TAF CYSB 211339Z 2114/2202 20012KT P6SM FEW004 SCT100 OVC220 FM211500 20010KT P6SM SCT012 BKN025 TEMPO 2115/2120 5SM -SHRA BR BKN012 OVC025 PROB30 2116/2120 VRB15G25KT 11/2SM TSRA BR BKN005 OVC012CB FM212000 14007KT P6SM BKN025 RMK NXT FCST BY 212000Z
Forecast at CYSB
14:00 21-09-17 to 15:00 21-09-17
Wind:12 Knots from 200°
Visibility:6.21 statute miles
400FEW A few
10000SCT Scattered
22000OVC Overcast
FM 15:00 21-09-17 to 20:00 21-09-17
Wind:10 Knots from 200°
Visibility:6.21 statute miles
1200SCT Scattered
2500BKN Broken
TEMPO 15:00 21-09-17 to 20:00 21-09-17
-SHRA BR
Visibility:5.0 statute miles
1200BKN Broken
2500OVC Overcast
PROB 16:00 21-09-17 to 20:00 21-09-17
30% TSRA BR
Wind:15 Knots from 360°
Visibility:1.5 statute miles
500BKN Broken
1200OVC Overcast
FM 20:00 21-09-17 to 02:00 22-09-17
Wind:7 Knots from 140°
Visibility:6.21 statute miles
2500BKN Broken